TKJ7VT LTAC-LTAJ
Flight info
| Callsign | TKJ7VT |
|---|---|
| Flight time | 0h 51m |
| Altitude | 35000 |
| Route | YUCEL UA17 BELSU UL605 RATSI UA17 REMPO L605 ASBOM |
| Aircraft | B738/M-SDE2E3FGHIRWXY/LB1 |
Departure
| Time | 2026-04-30 20:07 |
|---|---|
| Airport | Esenboğa International Airport (LTAC) |
Arrival
| Time | 2026-04-30 20:58 |
|---|---|
| Airport | Gaziantep Oğuzeli International Airport (LTAJ) |
| Time | Latitude | Longitude | Altitude | Speed | Heading |
|---|---|---|---|---|---|
| 2026-04-30 19:38 | 40.11383 | 32.98843 | 3127 ft | 0 kts | 124° |
| 2026-04-30 19:55 | 40.11388 | 32.98832 | 3127 ft | 2 kts | 124° |
| 2026-04-30 19:56 | 40.11393 | 32.98822 | 3126 ft | 2 kts | 124° |
| 2026-04-30 19:56 | 40.11400 | 32.98804 | 3126 ft | 2 kts | 102° |
| 2026-04-30 19:56 | 40.11401 | 32.98785 | 3126 ft | 2 kts | 88° |
| 2026-04-30 19:56 | 40.11399 | 32.98765 | 3125 ft | 2 kts | 71° |
| 2026-04-30 19:57 | 40.11393 | 32.98748 | 3125 ft | 2 kts | 56° |
| 2026-04-30 19:57 | 40.11383 | 32.98733 | 3125 ft | 1 kts | 40° |
| 2026-04-30 19:57 | 40.11378 | 32.98728 | 3125 ft | 1 kts | 35° |
| 2026-04-30 19:57 | 40.11377 | 32.98727 | 3125 ft | 0 kts | 36° |
| 2026-04-30 19:59 | 40.11384 | 32.98734 | 3125 ft | 3 kts | 37° |
| 2026-04-30 19:59 | 40.11456 | 32.98804 | 3126 ft | 8 kts | 36° |
| 2026-04-30 20:00 | 40.11489 | 32.98834 | 3127 ft | 7 kts | 36° |
| 2026-04-30 20:00 | 40.11533 | 32.98878 | 3128 ft | 10 kts | 40° |
| 2026-04-30 20:00 | 40.11593 | 32.98951 | 3129 ft | 10 kts | 36° |
| 2026-04-30 20:00 | 40.11635 | 32.99005 | 3130 ft | 7 kts | 64° |
| 2026-04-30 20:01 | 40.11749 | 32.99116 | 3132 ft | 16 kts | 334° |
| 2026-04-30 20:01 | 40.11849 | 32.99050 | 3131 ft | 18 kts | 26° |
| 2026-04-30 20:01 | 40.11954 | 32.99145 | 3133 ft | 18 kts | 36° |
| 2026-04-30 20:02 | 40.12184 | 32.99364 | 3134 ft | 22 kts | 36° |
| 2026-04-30 20:02 | 40.12307 | 32.99485 | 3137 ft | 22 kts | 38° |
| 2026-04-30 20:03 | 40.12575 | 32.99739 | 3140 ft | 25 kts | 37° |
| 2026-04-30 20:03 | 40.12726 | 32.99884 | 3140 ft | 26 kts | 36° |
| 2026-04-30 20:03 | 40.12874 | 33.00025 | 3141 ft | 25 kts | 35° |
| 2026-04-30 20:03 | 40.13012 | 33.00154 | 3145 ft | 23 kts | 36° |
| 2026-04-30 20:04 | 40.13147 | 33.00285 | 3146 ft | 24 kts | 37° |
| 2026-04-30 20:04 | 40.13290 | 33.00421 | 3146 ft | 26 kts | 34° |
| 2026-04-30 20:04 | 40.13440 | 33.00563 | 3145 ft | 26 kts | 36° |
| 2026-04-30 20:05 | 40.13727 | 33.00837 | 3145 ft | 25 kts | 37° |
| 2026-04-30 20:05 | 40.13867 | 33.00971 | 3146 ft | 24 kts | 36° |
| 2026-04-30 20:05 | 40.14109 | 33.00949 | 3142 ft | 23 kts | 283° |
| 2026-04-30 20:06 | 40.14191 | 33.00792 | 3138 ft | 18 kts | 309° |
| 2026-04-30 20:06 | 40.14182 | 33.00656 | 3136 ft | 17 kts | 217° |
| 2026-04-30 20:06 | 40.14086 | 33.00567 | 3136 ft | 16 kts | 215° |
| 2026-04-30 20:06 | 40.13917 | 33.00406 | 3136 ft | 62 kts | 215° |
| 2026-04-30 20:07 | 40.13370 | 32.99887 | 3130 ft | 131 kts | 217° |
| 2026-04-30 20:07 | 40.12473 | 32.99021 | 3193 ft | 183 kts | 216° |
| 2026-04-30 20:07 | 40.10386 | 32.96923 | 4764 ft | 193 kts | 216° |
| 2026-04-30 20:08 | 40.09323 | 32.95849 | 5385 ft | 199 kts | 217° |
| 2026-04-30 20:08 | 40.08186 | 32.94740 | 5911 ft | 211 kts | 215° |
| 2026-04-30 20:08 | 40.06976 | 32.93694 | 6642 ft | 213 kts | 210° |
| 2026-04-30 20:08 | 40.05472 | 32.93302 | 7047 ft | 233 kts | 172° |
| 2026-04-30 20:09 | 40.03970 | 32.94245 | 7530 ft | 253 kts | 140° |
| 2026-04-30 20:09 | 40.02747 | 32.95968 | 8060 ft | 269 kts | 132° |
| 2026-04-30 20:09 | 40.00206 | 32.99830 | 9319 ft | 290 kts | 134° |
| 2026-04-30 20:10 | 39.97451 | 33.03812 | 10654 ft | 307 kts | 135° |
| 2026-04-30 20:10 | 39.95987 | 33.05924 | 11122 ft | 323 kts | 135° |
| 2026-04-30 20:10 | 39.94448 | 33.08149 | 11555 ft | 340 kts | 135° |
| 2026-04-30 20:11 | 39.91190 | 33.12867 | 12783 ft | 360 kts | 135° |
| 2026-04-30 20:11 | 39.89505 | 33.15313 | 13532 ft | 365 kts | 135° |
| 2026-04-30 20:11 | 39.87808 | 33.17772 | 14308 ft | 369 kts | 135° |
| 2026-04-30 20:12 | 39.84361 | 33.22763 | 15791 ft | 377 kts | 135° |
| 2026-04-30 20:12 | 39.82606 | 33.25299 | 16477 ft | 381 kts | 135° |
| 2026-04-30 20:12 | 39.80815 | 33.27883 | 17172 ft | 385 kts | 135° |
| 2026-04-30 20:13 | 39.79029 | 33.30458 | 17832 ft | 388 kts | 135° |
| 2026-04-30 20:13 | 39.77225 | 33.33055 | 18515 ft | 391 kts | 135° |
| 2026-04-30 20:13 | 39.75397 | 33.35683 | 19132 ft | 396 kts | 135° |
| 2026-04-30 20:13 | 39.73532 | 33.38365 | 19718 ft | 401 kts | 135° |
| 2026-04-30 20:14 | 39.71663 | 33.41047 | 20324 ft | 404 kts | 135° |
| 2026-04-30 20:14 | 39.69778 | 33.43750 | 20882 ft | 409 kts | 135° |
| 2026-04-30 20:14 | 39.67873 | 33.46481 | 21477 ft | 412 kts | 135° |
| 2026-04-30 20:14 | 39.65929 | 33.49265 | 22049 ft | 416 kts | 135° |
| 2026-04-30 20:15 | 39.63990 | 33.52040 | 22596 ft | 420 kts | 135° |
| 2026-04-30 20:15 | 39.62043 | 33.54826 | 23155 ft | 423 kts | 135° |
| 2026-04-30 20:15 | 39.60045 | 33.57682 | 23733 ft | 425 kts | 135° |
| 2026-04-30 20:15 | 39.58059 | 33.60515 | 24214 ft | 430 kts | 135° |
| 2026-04-30 20:16 | 39.56054 | 33.63375 | 24721 ft | 433 kts | 135° |
| 2026-04-30 20:16 | 39.54001 | 33.66300 | 25251 ft | 436 kts | 136° |
| 2026-04-30 20:16 | 39.51962 | 33.69202 | 25721 ft | 439 kts | 136° |
| 2026-04-30 20:16 | 39.49917 | 33.72111 | 26181 ft | 442 kts | 136° |
| 2026-04-30 20:17 | 39.47840 | 33.75063 | 26676 ft | 444 kts | 136° |
| 2026-04-30 20:17 | 39.45753 | 33.78027 | 27078 ft | 449 kts | 135° |
| 2026-04-30 20:17 | 39.43677 | 33.81060 | 27528 ft | 452 kts | 134° |
| 2026-04-30 20:17 | 39.41660 | 33.84149 | 27984 ft | 455 kts | 133° |
| 2026-04-30 20:18 | 39.39637 | 33.87318 | 28375 ft | 459 kts | 133° |
| 2026-04-30 20:18 | 39.37611 | 33.90516 | 28779 ft | 461 kts | 132° |
| 2026-04-30 20:18 | 39.35584 | 33.93715 | 29216 ft | 463 kts | 132° |
| 2026-04-30 20:18 | 39.33529 | 33.96944 | 29583 ft | 467 kts | 133° |
| 2026-04-30 20:19 | 39.31484 | 34.00146 | 30179 ft | 464 kts | 133° |
| 2026-04-30 20:19 | 39.30119 | 34.02278 | 30555 ft | 463 kts | 133° |
| 2026-04-30 20:19 | 39.27385 | 34.06530 | 31208 ft | 462 kts | 133° |
| 2026-04-30 20:19 | 39.25327 | 34.09721 | 31695 ft | 461 kts | 133° |
| 2026-04-30 20:20 | 39.23279 | 34.12890 | 32189 ft | 459 kts | 133° |
| 2026-04-30 20:20 | 39.21231 | 34.16054 | 32615 ft | 459 kts | 133° |
| 2026-04-30 20:20 | 39.19205 | 34.19178 | 33068 ft | 458 kts | 133° |
| 2026-04-30 20:20 | 39.17154 | 34.22335 | 33492 ft | 458 kts | 132° |
| 2026-04-30 20:21 | 39.15126 | 34.25457 | 33854 ft | 458 kts | 132° |
| 2026-04-30 20:21 | 39.13174 | 34.28729 | 34227 ft | 460 kts | 127° |
| 2026-04-30 20:21 | 39.11399 | 34.32189 | 34627 ft | 460 kts | 124° |
| 2026-04-30 20:21 | 39.09684 | 34.35642 | 34965 ft | 459 kts | 126° |
| 2026-04-30 20:22 | 39.07761 | 34.38977 | 35027 ft | 460 kts | 130° |
| 2026-04-30 20:22 | 39.03654 | 34.45249 | 35042 ft | 456 kts | 133° |
| 2026-04-30 20:23 | 38.99457 | 34.51453 | 35050 ft | 454 kts | 133° |
| 2026-04-30 20:23 | 38.95344 | 34.57602 | 35049 ft | 455 kts | 133° |
| 2026-04-30 20:24 | 38.91259 | 34.63786 | 35050 ft | 454 kts | 132° |
| 2026-04-30 20:24 | 38.87190 | 34.69986 | 35057 ft | 454 kts | 133° |
| 2026-04-30 20:25 | 38.81120 | 34.79253 | 35057 ft | 454 kts | 132° |
| 2026-04-30 20:26 | 38.75039 | 34.88529 | 35062 ft | 454 kts | 132° |
| 2026-04-30 20:26 | 38.68969 | 34.97758 | 35078 ft | 452 kts | 132° |
| 2026-04-30 20:27 | 38.60863 | 35.10049 | 35090 ft | 451 kts | 132° |
| 2026-04-30 20:28 | 38.52723 | 35.22337 | 35089 ft | 451 kts | 132° |
| 2026-04-30 20:30 | 38.42500 | 35.37348 | 35123 ft | 449 kts | 133° |
| 2026-04-30 20:31 | 38.30154 | 35.55279 | 35135 ft | 449 kts | 133° |
| 2026-04-30 20:32 | 38.19895 | 35.70135 | 35129 ft | 447 kts | 134° |
| 2026-04-30 20:33 | 38.13788 | 35.78947 | 35130 ft | 446 kts | 134° |
| 2026-04-30 20:34 | 38.07646 | 35.87783 | 35139 ft | 443 kts | 134° |
| 2026-04-30 20:35 | 38.01536 | 35.96552 | 35131 ft | 443 kts | 134° |
| 2026-04-30 20:35 | 37.95511 | 36.05180 | 34964 ft | 424 kts | 134° |
| 2026-04-30 20:36 | 37.93564 | 36.07966 | 34640 ft | 418 kts | 134° |
| 2026-04-30 20:36 | 37.91633 | 36.10724 | 34156 ft | 416 kts | 134° |
| 2026-04-30 20:36 | 37.87814 | 36.16165 | 33170 ft | 412 kts | 134° |
| 2026-04-30 20:37 | 37.85915 | 36.18869 | 32685 ft | 410 kts | 133° |
| 2026-04-30 20:37 | 37.84049 | 36.21525 | 32208 ft | 408 kts | 133° |
| 2026-04-30 20:37 | 37.82161 | 36.24211 | 31719 ft | 406 kts | 133° |
| 2026-04-30 20:37 | 37.80299 | 36.26865 | 31239 ft | 404 kts | 133° |
| 2026-04-30 20:38 | 37.78437 | 36.29522 | 30752 ft | 402 kts | 133° |
| 2026-04-30 20:38 | 37.76607 | 36.32132 | 30279 ft | 400 kts | 133° |
| 2026-04-30 20:38 | 37.74753 | 36.34773 | 29797 ft | 398 kts | 133° |
| 2026-04-30 20:39 | 37.71122 | 36.39935 | 28849 ft | 394 kts | 133° |
| 2026-04-30 20:39 | 37.69313 | 36.42503 | 28377 ft | 392 kts | 133° |
| 2026-04-30 20:39 | 37.67499 | 36.45075 | 27904 ft | 390 kts | 133° |
| 2026-04-30 20:40 | 37.63917 | 36.50148 | 26953 ft | 386 kts | 133° |
| 2026-04-30 20:40 | 37.62129 | 36.52675 | 26479 ft | 384 kts | 133° |
| 2026-04-30 20:40 | 37.60372 | 36.55156 | 26018 ft | 382 kts | 133° |
| 2026-04-30 20:41 | 37.56844 | 36.60138 | 25091 ft | 378 kts | 133° |
| 2026-04-30 20:41 | 37.55106 | 36.62588 | 24618 ft | 376 kts | 132° |
| 2026-04-30 20:41 | 37.53386 | 36.65013 | 24162 ft | 374 kts | 133° |
| 2026-04-30 20:41 | 37.51641 | 36.67470 | 23699 ft | 372 kts | 133° |
| 2026-04-30 20:42 | 37.49925 | 36.69886 | 23244 ft | 370 kts | 133° |
| 2026-04-30 20:42 | 37.48235 | 36.72286 | 22791 ft | 367 kts | 133° |
| 2026-04-30 20:42 | 37.44891 | 36.77074 | 21890 ft | 363 kts | 133° |
| 2026-04-30 20:43 | 37.43235 | 36.79445 | 21442 ft | 360 kts | 133° |
| 2026-04-30 20:43 | 37.41600 | 36.81782 | 21007 ft | 353 kts | 133° |
| 2026-04-30 20:43 | 37.40002 | 36.84067 | 20598 ft | 346 kts | 133° |
| 2026-04-30 20:44 | 37.36875 | 36.88527 | 19757 ft | 333 kts | 133° |
| 2026-04-30 20:44 | 37.35357 | 36.90685 | 19346 ft | 330 kts | 133° |
| 2026-04-30 20:44 | 37.32330 | 36.94983 | 18535 ft | 327 kts | 133° |
| 2026-04-30 20:45 | 37.29355 | 36.99206 | 17749 ft | 323 kts | 133° |
| 2026-04-30 20:45 | 37.27873 | 37.01310 | 17354 ft | 322 kts | 133° |
| 2026-04-30 20:45 | 37.26394 | 37.03405 | 16959 ft | 321 kts | 133° |
| 2026-04-30 20:46 | 37.21708 | 37.09304 | 15777 ft | 316 kts | 138° |
| 2026-04-30 20:46 | 37.20109 | 37.11193 | 15390 ft | 315 kts | 138° |
| 2026-04-30 20:47 | 37.16954 | 37.14970 | 14609 ft | 313 kts | 137° |
| 2026-04-30 20:47 | 37.15394 | 37.16854 | 14205 ft | 313 kts | 137° |
| 2026-04-30 20:48 | 37.12294 | 37.20610 | 13465 ft | 310 kts | 137° |
| 2026-04-30 20:48 | 37.10868 | 37.22629 | 13105 ft | 309 kts | 126° |
| 2026-04-30 20:48 | 37.09954 | 37.24998 | 13063 ft | 300 kts | 109° |
| 2026-04-30 20:48 | 37.09417 | 37.27503 | 13039 ft | 299 kts | 104° |
| 2026-04-30 20:49 | 37.08953 | 37.30031 | 12813 ft | 296 kts | 104° |
| 2026-04-30 20:49 | 37.08482 | 37.32523 | 12444 ft | 296 kts | 105° |
| 2026-04-30 20:49 | 37.07971 | 37.35045 | 12062 ft | 296 kts | 105° |
| 2026-04-30 20:50 | 37.06908 | 37.40011 | 11318 ft | 296 kts | 106° |
| 2026-04-30 20:50 | 37.06374 | 37.42475 | 10924 ft | 297 kts | 106° |
| 2026-04-30 20:50 | 37.05834 | 37.44972 | 10551 ft | 296 kts | 106° |
| 2026-04-30 20:50 | 37.05298 | 37.47448 | 10147 ft | 296 kts | 106° |
| 2026-04-30 20:51 | 37.04767 | 37.49906 | 9970 ft | 287 kts | 106° |
| 2026-04-30 20:51 | 37.03725 | 37.54718 | 9124 ft | 289 kts | 106° |
| 2026-04-30 20:51 | 37.03200 | 37.57136 | 8745 ft | 285 kts | 106° |
| 2026-04-30 20:52 | 37.02689 | 37.59494 | 8396 ft | 281 kts | 106° |
| 2026-04-30 20:52 | 37.02182 | 37.61827 | 8037 ft | 276 kts | 106° |
| 2026-04-30 20:52 | 37.01189 | 37.66388 | 7362 ft | 267 kts | 107° |
| 2026-04-30 20:53 | 37.00670 | 37.68599 | 7032 ft | 263 kts | 112° |
| 2026-04-30 20:53 | 36.99799 | 37.70573 | 6707 ft | 257 kts | 134° |
| 2026-04-30 20:53 | 36.98341 | 37.71827 | 6479 ft | 258 kts | 160° |
| 2026-04-30 20:54 | 36.94981 | 37.72243 | 6296 ft | 233 kts | 192° |
| 2026-04-30 20:54 | 36.93451 | 37.71727 | 6141 ft | 224 kts | 199° |
| 2026-04-30 20:54 | 36.92091 | 37.70804 | 5759 ft | 226 kts | 221° |
| 2026-04-30 20:55 | 36.90751 | 37.67399 | 5190 ft | 221 kts | 272° |
| 2026-04-30 20:55 | 36.91033 | 37.65522 | 4899 ft | 220 kts | 283° |
| 2026-04-30 20:55 | 36.91404 | 37.63742 | 4619 ft | 206 kts | 283° |
| 2026-04-30 20:56 | 36.92084 | 37.60490 | 4108 ft | 183 kts | 284° |
| 2026-04-30 20:56 | 36.92403 | 37.59006 | 3872 ft | 171 kts | 284° |
| 2026-04-30 20:56 | 36.92980 | 37.56322 | 3436 ft | 154 kts | 285° |
| 2026-04-30 20:57 | 36.93261 | 37.55023 | 3230 ft | 154 kts | 285° |
| 2026-04-30 20:57 | 36.93537 | 37.53746 | 3030 ft | 153 kts | 285° |
| 2026-04-30 20:57 | 36.93815 | 37.52453 | 2827 ft | 153 kts | 285° |
| 2026-04-30 20:58 | 36.94376 | 37.49876 | 2442 ft | 153 kts | 285° |
| 2026-04-30 20:58 | 36.94642 | 37.48628 | 2326 ft | 140 kts | 285° |
| 2026-04-30 20:58 | 36.94850 | 37.47665 | 2319 ft | 83 kts | 285° |
| 2026-04-30 20:58 | 36.94950 | 37.47199 | 2319 ft | 30 kts | 285° |
| 2026-04-30 20:59 | 36.95010 | 37.46867 | 2320 ft | 11 kts | 268° |
| 2026-04-30 20:59 | 36.95006 | 37.46812 | 2320 ft | 1 kts | 265° |
| 2026-04-30 21:00 | 36.94967 | 37.46614 | 2320 ft | 23 kts | 216° |
| 2026-04-30 21:00 | 36.94842 | 37.46920 | 2319 ft | 21 kts | 105° |
| 2026-04-30 21:01 | 36.94766 | 37.47264 | 2319 ft | 19 kts | 105° |
| 2026-04-30 21:01 | 36.94732 | 37.47422 | 2319 ft | 18 kts | 105° |
| 2026-04-30 21:01 | 36.94619 | 37.47606 | 2319 ft | 13 kts | 99° |
| 2026-04-30 21:02 | 36.94596 | 37.47720 | 2319 ft | 12 kts | 108° |
| 2026-04-30 21:02 | 36.94553 | 37.47733 | 2319 ft | 5 kts | 202° |
| 2026-04-30 21:02 | 36.94526 | 37.47722 | 2319 ft | 2 kts | 195° |
| 2026-04-30 21:02 | 36.94522 | 37.47721 | 2319 ft | 0 kts | 195° |